Ploiesti, Romania
Current Conditions -  °F | °C
As of 12:30 PM on Saturday 25 Oct 2014 (Local Time) from LROP Reporting Station
Overcast Overcast  
Wind Chill: 26°   Ceiling: 2400
Heat Index: 37°   Visibility: 6mi
Dew Point: 27°   Wind: 26mph
Humidity: 65%   Direction: 50°NE
Pressure: 30.27"   Gusts: 39mph
Location:  44.94°N, 26.03°E
Report Text: LROP 250930Z 05023G34KT 9999 OVC024 03/M03 Q1025 R88/19//95NOSIG
Loading
Personal Weather Stations






























Interactive Weather Map
Tropical Storm Tracking
New forecast layout! Learn more

10-Day Weather Forecast

Advertisements
Track Severe Weather on mobile